createdAt,value
2023-04-28T00:00:09.762Z,7.89
2023-04-28T00:02:38.053Z,7.98
2023-04-28T00:05:07.462Z,7.91
2023-04-28T00:07:37.502Z,7.89
2023-04-28T00:10:37.700Z,7.94
2023-04-28T00:13:06.156Z,7.92
2023-04-28T00:15:34.475Z,7.93
2023-04-28T00:18:02.693Z,7.93
2023-04-28T00:20:30.920Z,7.88
2023-04-28T00:23:00.432Z,7.88
2023-04-28T00:25:30.713Z,7.91
2023-04-28T00:27:58.900Z,7.95
2023-04-28T00:30:27.131Z,6.93
2023-04-28T00:32:56.283Z,8.01
2023-04-28T00:35:24.783Z,8.00
2023-04-28T00:37:52.973Z,7.96
2023-04-28T00:40:22.513Z,7.95
2023-04-28T00:42:51.748Z,7.94
2023-04-28T00:45:20.038Z,7.89
2023-04-28T00:47:48.239Z,7.93
2023-04-28T00:50:18.214Z,7.93
2023-04-28T00:52:46.816Z,7.85
2023-04-28T00:55:17.004Z,7.90
2023-04-28T00:57:47.214Z,7.14
2023-04-28T01:00:17.829Z,8.01
2023-04-28T01:02:46.139Z,8.10
2023-04-28T01:05:15.946Z,8.15
2023-04-28T01:07:44.345Z,8.15
2023-04-28T01:10:13.100Z,8.30
2023-04-28T01:12:41.355Z,8.31
2023-04-28T01:15:17.951Z,8.20
2023-04-28T01:17:47.935Z,7.72
2023-04-28T01:20:16.596Z,8.12
2023-04-28T01:22:45.060Z,8.31
2023-04-28T01:25:14.573Z,8.20
2023-04-28T01:27:42.733Z,8.27
2023-04-28T01:30:11.969Z,8.27
2023-04-28T01:32:40.614Z,8.31
2023-04-28T01:35:09.617Z,8.39
2023-04-28T01:37:38.114Z,8.24
2023-04-28T01:40:08.169Z,8.29
2023-04-28T01:42:37.742Z,8.25
2023-04-28T01:45:07.472Z,8.41
2023-04-28T01:47:35.945Z,8.34
2023-04-28T01:50:04.363Z,8.30
2023-04-28T01:52:32.638Z,8.38
2023-04-28T01:55:01.027Z,8.43
2023-04-28T01:57:29.380Z,8.34
2023-04-28T02:00:00.708Z,8.48
2023-04-28T02:02:29.588Z,8.34
2023-04-28T02:05:01.036Z,8.32
2023-04-28T02:07:29.671Z,8.93
2023-04-28T02:10:00.629Z,8.30
2023-04-28T02:12:54.056Z,8.29
2023-04-28T02:15:23.688Z,8.26
2023-04-28T02:17:52.048Z,8.24
2023-04-28T02:20:21.079Z,8.25
2023-04-28T02:22:50.067Z,8.33
2023-04-28T02:25:18.525Z,8.37
2023-04-28T02:27:47.100Z,8.50
2023-04-28T02:30:15.613Z,8.46
2023-04-28T02:32:45.682Z,8.40
2023-04-28T02:35:16.965Z,8.56
2023-04-28T02:37:45.444Z,8.56
2023-04-28T02:40:14.818Z,8.28
2023-04-28T02:42:43.052Z,8.45
2023-04-28T02:45:12.529Z,8.40
2023-04-28T02:47:41.327Z,8.29
2023-04-28T02:50:11.955Z,8.25
2023-04-28T02:52:40.301Z,8.35
2023-04-28T02:55:09.663Z,8.36
2023-04-28T02:57:37.934Z,8.41
2023-04-28T03:00:09.518Z,8.50
2023-04-28T03:02:45.682Z,8.43
2023-04-28T03:05:15.511Z,8.46
2023-04-28T03:07:44.414Z,8.56
2023-04-28T03:10:12.900Z,8.66
2023-04-28T03:12:41.350Z,8.65
2023-04-28T03:15:12.095Z,8.70
2023-04-28T03:17:43.313Z,8.78
2023-04-28T03:20:14.415Z,8.79
2023-04-28T03:22:42.669Z,7.16
2023-04-28T03:25:11.300Z,8.76
2023-04-28T03:27:47.784Z,8.92
2023-04-28T03:30:16.331Z,8.89
2023-04-28T03:32:44.641Z,8.94
2023-04-28T03:35:14.435Z,8.84
2023-04-28T03:37:43.387Z,8.88
2023-04-28T03:40:13.319Z,9.01
2023-04-28T03:43:01.256Z,9.02
2023-04-28T03:45:37.709Z,8.93
2023-04-28T03:48:07.165Z,8.95
2023-04-28T03:50:36.880Z,8.88
2023-04-28T03:53:05.258Z,8.88
2023-04-28T03:55:34.497Z,8.89
2023-04-28T03:58:02.861Z,9.01
2023-04-28T04:00:31.324Z,8.94
2023-04-28T04:02:59.725Z,8.98
2023-04-28T04:05:59.675Z,8.87
2023-04-28T04:08:28.122Z,8.88
2023-04-28T04:10:57.409Z,8.90
2023-04-28T04:13:25.892Z,9.09
2023-04-28T04:15:54.468Z,8.95
2023-04-28T04:18:25.381Z,9.04
2023-04-28T04:21:15.478Z,9.13
2023-04-28T04:23:43.701Z,9.24
2023-04-28T04:26:13.288Z,9.23
2023-04-28T04:28:41.557Z,9.20
2023-04-28T04:31:11.132Z,9.10
2023-04-28T04:33:39.432Z,9.13
2023-04-28T04:36:09.255Z,9.09
2023-04-28T04:38:38.906Z,9.16
2023-04-28T04:41:17.841Z,9.18
2023-04-28T04:43:46.206Z,9.20
2023-04-28T04:46:15.270Z,9.17
2023-04-28T04:48:43.682Z,9.17
2023-04-28T04:51:12.056Z,9.08
2023-04-28T04:53:41.955Z,9.17
2023-04-28T04:56:11.058Z,9.09
2023-04-28T04:58:39.521Z,9.12
2023-04-28T05:01:31.037Z,9.23
2023-04-28T05:03:59.786Z,9.22
2023-04-28T05:06:28.276Z,9.20
2023-04-28T05:08:59.272Z,9.17
2023-04-28T05:11:28.281Z,9.39
2023-04-28T05:13:56.523Z,9.25
2023-04-28T05:16:25.706Z,9.30
2023-04-28T05:19:26.490Z,9.27
2023-04-28T05:21:55.068Z,9.35
2023-04-28T05:24:26.214Z,9.32
2023-04-28T05:26:55.094Z,9.33
2023-04-28T05:29:23.329Z,9.43
2023-04-28T05:31:51.784Z,9.28
2023-04-28T05:34:21.764Z,9.46
2023-04-28T05:36:50.218Z,9.33
2023-04-28T05:39:19.786Z,9.36
2023-04-28T05:41:49.471Z,9.37
2023-04-28T05:44:18.029Z,9.38
2023-04-28T05:46:48.238Z,9.50
2023-04-28T05:49:19.813Z,9.50
2023-04-28T05:51:48.068Z,9.49
2023-04-28T05:54:17.805Z,9.70
2023-04-28T05:56:51.410Z,9.69
2023-04-28T05:59:20.071Z,9.65
2023-04-28T06:01:48.748Z,9.81
2023-04-28T06:04:27.752Z,9.73
2023-04-28T06:06:56.518Z,9.93
2023-04-28T06:09:33.262Z,9.18
2023-04-28T06:12:04.782Z,9.87
2023-04-28T06:14:33.085Z,9.91
2023-04-28T06:17:02.296Z,10.10
2023-04-28T06:19:30.815Z,10.05
2023-04-28T06:21:59.192Z,9.98
2023-04-28T06:24:27.389Z,10.27
2023-04-28T06:26:57.951Z,10.14
2023-04-28T06:29:27.947Z,10.26
2023-04-28T06:31:57.733Z,10.39
2023-04-28T06:34:28.906Z,10.38
2023-04-28T06:36:57.798Z,10.33
2023-04-28T06:39:27.853Z,10.42
2023-04-28T06:41:56.126Z,10.37
2023-04-28T06:44:28.462Z,10.45
2023-04-28T06:46:57.663Z,10.48
2023-04-28T06:49:26.112Z,10.50
2023-04-28T06:52:00.653Z,10.45
2023-04-28T06:54:32.047Z,10.56
2023-04-28T06:57:00.898Z,10.50
2023-04-28T06:59:30.481Z,10.35
2023-04-28T07:01:58.771Z,10.34
2023-04-28T07:04:27.327Z,10.31
2023-04-28T07:06:55.700Z,10.37
2023-04-28T07:09:31.348Z,10.25
2023-04-28T07:11:59.713Z,10.24
2023-04-28T07:14:27.971Z,10.23
2023-04-28T07:16:57.749Z,10.13
2023-04-28T07:19:26.019Z,10.10
2023-04-28T07:21:54.267Z,10.15
2023-04-28T07:24:23.421Z,10.11
2023-04-28T07:26:52.220Z,10.13
2023-04-28T07:29:20.530Z,10.13
2023-04-28T07:31:48.874Z,10.11
2023-04-28T07:34:18.736Z,10.01
2023-04-28T07:36:47.247Z,9.94
2023-04-28T07:39:16.244Z,10.09
2023-04-28T07:41:44.572Z,10.15
2023-04-28T07:44:13.098Z,9.96
2023-04-28T07:46:41.536Z,10.14
2023-04-28T07:49:09.862Z,9.93
2023-04-28T07:51:39.448Z,10.10
2023-04-28T07:54:07.698Z,9.92
2023-04-28T07:56:36.062Z,9.95
2023-04-28T07:59:04.354Z,9.86
2023-04-28T08:01:32.633Z,9.91
2023-04-28T08:04:01.395Z,9.91
2023-04-28T08:06:30.119Z,9.95
2023-04-28T08:08:59.888Z,9.91
2023-04-28T08:11:28.251Z,10.11
2023-04-28T08:14:01.164Z,10.03
2023-04-28T08:16:30.239Z,10.24
2023-04-28T08:18:59.023Z,10.15
2023-04-28T08:21:27.719Z,10.15
2023-04-28T08:23:56.033Z,10.18
2023-04-28T08:26:26.570Z,10.23
2023-04-28T08:28:54.762Z,10.27
2023-04-28T08:31:23.880Z,10.37
2023-04-28T08:33:52.239Z,10.30
2023-04-28T08:36:21.258Z,10.33
2023-04-28T08:38:49.914Z,10.45
2023-04-28T08:41:19.542Z,10.25
2023-04-28T08:43:49.777Z,10.41
2023-04-28T08:46:22.958Z,9.30
2023-04-28T08:48:52.750Z,10.33
2023-04-28T08:51:34.329Z,10.27
2023-04-28T08:54:22.847Z,10.23
2023-04-28T08:56:53.865Z,10.32
2023-04-28T08:59:23.540Z,10.26
2023-04-28T09:01:53.420Z,10.09
2023-04-28T09:04:22.464Z,10.39
2023-04-28T09:06:50.933Z,10.49
2023-04-28T09:09:27.399Z,10.54
2023-04-28T09:11:58.696Z,10.47
2023-04-28T09:14:29.949Z,10.39
2023-04-28T09:16:58.632Z,9.92
2023-04-28T09:19:36.126Z,10.39
2023-04-28T09:22:24.120Z,10.46
2023-04-28T09:24:55.442Z,10.54
2023-04-28T09:27:29.187Z,10.43
2023-04-28T09:29:58.901Z,10.45
2023-04-28T09:32:28.798Z,10.47
2023-04-28T09:34:57.717Z,10.58
2023-04-28T09:37:30.806Z,10.53
2023-04-28T09:40:05.315Z,10.57
2023-04-28T09:42:35.460Z,10.51
2023-04-28T09:45:07.315Z,10.55
2023-04-28T09:47:37.593Z,10.54
2023-04-28T09:50:09.556Z,10.35
2023-04-28T09:52:37.883Z,10.62
2023-04-28T09:55:08.807Z,10.62
2023-04-28T09:57:38.034Z,10.73
2023-04-28T10:00:10.229Z,10.76
2023-04-28T10:03:03.418Z,11.00
2023-04-28T10:05:33.919Z,11.12
2023-04-28T10:08:03.687Z,11.28
2023-04-28T10:10:32.913Z,11.31
2023-04-28T10:13:02.990Z,11.40
2023-04-28T10:15:34.051Z,11.36
2023-04-28T10:18:03.873Z,11.52
2023-04-28T10:20:32.656Z,11.63
2023-04-28T10:23:18.600Z,11.49
2023-04-28T10:25:50.736Z,11.57
2023-04-28T10:28:19.770Z,11.56
2023-04-28T10:31:11.017Z,11.33
2023-04-28T10:33:39.885Z,11.66
2023-04-28T10:36:09.247Z,11.72
2023-04-28T10:39:10.964Z,11.72
2023-04-28T10:41:39.249Z,11.85
2023-04-28T10:44:43.836Z,12.06
2023-04-28T10:47:13.478Z,11.90
2023-04-28T10:50:11.625Z,11.93
2023-04-28T10:52:52.541Z,12.11
2023-04-28T10:55:36.527Z,12.23
2023-04-28T10:58:34.008Z,11.51
2023-04-28T11:01:29.917Z,12.20
2023-04-28T11:04:03.281Z,12.46
2023-04-28T11:06:34.353Z,12.53
2023-04-28T11:09:04.810Z,12.45
2023-04-28T11:11:35.091Z,12.43
2023-04-28T11:14:35.033Z,12.47
2023-04-28T11:17:05.742Z,12.45
2023-04-28T11:19:37.846Z,12.35
2023-04-28T11:22:15.598Z,12.51
2023-04-28T11:24:57.189Z,12.59
2023-04-28T11:27:26.884Z,12.71
2023-04-28T11:29:55.781Z,12.49
2023-04-28T11:32:29.433Z,12.47
2023-04-28T11:34:59.124Z,12.55
2023-04-28T11:37:27.549Z,12.59
2023-04-28T11:39:55.830Z,12.48
2023-04-28T11:42:25.959Z,12.67
2023-04-28T11:44:55.696Z,12.70
2023-04-28T11:47:32.906Z,12.21
2023-04-28T11:50:03.445Z,12.49
2023-04-28T11:52:31.826Z,12.50
2023-04-28T11:55:02.386Z,12.51
2023-04-28T11:57:30.869Z,12.55
2023-04-28T12:00:15.149Z,12.56
2023-04-28T12:02:43.743Z,12.60
2023-04-28T12:05:18.597Z,12.56
2023-04-28T12:07:46.920Z,12.62
2023-04-28T12:10:23.668Z,12.46
2023-04-28T12:12:53.428Z,12.63
2023-04-28T12:15:24.755Z,12.61
2023-04-28T12:17:53.458Z,12.69
2023-04-28T12:20:41.676Z,12.70
2023-04-28T12:23:13.236Z,12.68
2023-04-28T12:25:45.730Z,12.71
2023-04-28T12:28:14.057Z,12.77
2023-04-28T12:30:43.504Z,12.67
2023-04-28T12:33:24.942Z,12.72
2023-04-28T12:35:56.010Z,12.77
2023-04-28T12:38:24.618Z,12.68
2023-04-28T12:40:53.859Z,12.81
2023-04-28T12:43:23.906Z,12.81
2023-04-28T12:45:53.313Z,12.78
2023-04-28T12:48:23.686Z,12.73
2023-04-28T12:50:52.401Z,12.77
2023-04-28T12:53:21.948Z,12.88
2023-04-28T12:55:50.197Z,12.88
2023-04-28T12:58:18.444Z,12.83
2023-04-28T13:00:46.689Z,12.89
2023-04-28T13:03:15.867Z,12.96
2023-04-28T13:05:44.243Z,12.95
2023-04-28T13:08:12.886Z,12.83
2023-04-28T13:10:42.698Z,12.92
2023-04-28T13:13:10.902Z,13.03
2023-04-28T13:15:39.336Z,13.12
2023-04-28T13:18:08.054Z,13.05
2023-04-28T13:20:36.296Z,13.10
2023-04-28T13:23:04.562Z,13.14
2023-04-28T13:25:32.817Z,13.07
2023-04-28T13:28:02.398Z,13.06
2023-04-28T13:30:30.595Z,13.04
2023-04-28T13:32:59.064Z,13.01
2023-04-28T13:35:27.595Z,12.92
2023-04-28T13:38:01.800Z,13.01
2023-04-28T13:40:30.123Z,12.89
2023-04-28T13:42:58.416Z,13.03
2023-04-28T13:45:28.695Z,12.99
2023-04-28T13:47:56.994Z,12.92
2023-04-28T13:50:25.205Z,12.97
2023-04-28T13:52:54.066Z,13.00
2023-04-28T13:55:27.620Z,12.94
2023-04-28T13:57:56.533Z,12.94
2023-04-28T14:00:24.799Z,13.02
2023-04-28T14:02:54.586Z,13.00
2023-04-28T14:05:49.675Z,13.05
2023-04-28T14:08:20.403Z,12.95
2023-04-28T14:10:50.164Z,12.98
2023-04-28T14:13:19.001Z,13.05
2023-04-28T14:15:58.501Z,13.14
2023-04-28T14:18:29.261Z,13.20
2023-04-28T14:20:57.580Z,13.23
2023-04-28T14:23:26.714Z,13.21
2023-04-28T14:25:56.138Z,13.24
2023-04-28T14:28:24.494Z,13.20
2023-04-28T14:30:54.670Z,13.34
2023-04-28T14:33:22.998Z,13.19
2023-04-28T14:35:52.648Z,13.25
2023-04-28T14:38:21.035Z,13.13
2023-04-28T14:40:49.486Z,13.11
2023-04-28T14:43:17.722Z,12.86
2023-04-28T14:45:46.294Z,12.85
2023-04-28T14:48:15.409Z,12.84
2023-04-28T14:50:44.610Z,12.72
2023-04-28T14:53:14.188Z,12.81
2023-04-28T14:55:42.536Z,12.73
2023-04-28T14:58:10.745Z,12.80
2023-04-28T15:00:39.034Z,12.77
2023-04-28T15:03:08.878Z,12.84
2023-04-28T15:05:37.208Z,12.71
2023-04-28T15:08:06.096Z,12.87
2023-04-28T15:10:40.499Z,12.91
2023-04-28T15:13:09.051Z,13.01
2023-04-28T15:15:37.541Z,13.52
2023-04-28T15:18:06.069Z,12.92
2023-04-28T15:20:37.404Z,13.10
2023-04-28T15:23:05.715Z,12.97
2023-04-28T15:25:35.662Z,13.01
2023-04-28T15:28:07.074Z,13.04
2023-04-28T15:30:35.477Z,12.92
2023-04-28T15:33:04.285Z,12.89
2023-04-28T15:35:34.922Z,12.82
2023-04-28T15:38:03.155Z,12.48
2023-04-28T15:40:31.362Z,12.37
2023-04-28T15:43:00.983Z,12.51
2023-04-28T15:45:29.249Z,12.42
2023-04-28T15:47:57.545Z,12.17
2023-04-28T15:50:26.079Z,12.27
2023-04-28T15:52:54.333Z,12.18
2023-04-28T15:55:25.010Z,12.10
2023-04-28T15:57:53.470Z,12.06
2023-04-28T16:00:23.070Z,12.04
2023-04-28T16:02:54.306Z,11.96
2023-04-28T16:05:23.234Z,12.00
2023-04-28T16:07:52.669Z,11.98
2023-04-28T16:10:22.923Z,12.01
2023-04-28T16:12:51.648Z,11.84
2023-04-28T16:15:20.074Z,11.95
2023-04-28T16:17:51.264Z,12.01
2023-04-28T16:20:20.946Z,11.92
2023-04-28T16:22:49.245Z,11.95
2023-04-28T16:25:17.487Z,11.93
2023-04-28T16:27:46.123Z,11.91
2023-04-28T16:30:14.556Z,11.87
2023-04-28T16:32:42.909Z,11.84
2023-04-28T16:35:15.075Z,11.79
2023-04-28T16:37:44.154Z,11.80
2023-04-28T16:40:15.199Z,11.86
2023-04-28T16:42:44.948Z,11.52
2023-04-28T16:45:14.359Z,11.57
2023-04-28T16:47:43.746Z,11.54
2023-04-28T16:50:15.557Z,11.47
2023-04-28T16:52:43.920Z,11.39
2023-04-28T16:55:12.555Z,11.40
2023-04-28T16:57:41.485Z,11.42
2023-04-28T17:00:11.963Z,11.33
2023-04-28T17:02:40.359Z,11.38
2023-04-28T17:05:10.210Z,11.35
2023-04-28T17:07:39.720Z,11.21
2023-04-28T17:10:09.366Z,11.23
2023-04-28T17:12:37.568Z,10.32
2023-04-28T17:15:07.484Z,11.40
2023-04-28T17:17:36.043Z,11.38
2023-04-28T17:20:06.050Z,11.38
2023-04-28T17:22:35.401Z,11.34
2023-04-28T17:25:06.621Z,11.39
2023-04-28T17:27:34.859Z,11.41
2023-04-28T17:30:03.336Z,11.33
2023-04-28T17:32:33.445Z,11.44
2023-04-28T17:35:01.909Z,11.34
2023-04-28T17:37:32.615Z,11.47
2023-04-28T17:40:00.966Z,11.50
2023-04-28T17:42:32.450Z,11.44
2023-04-28T17:45:00.812Z,11.48
2023-04-28T17:47:29.052Z,11.56
2023-04-28T17:49:57.687Z,11.55
2023-04-28T17:52:25.946Z,11.53
2023-04-28T17:54:54.364Z,11.58
2023-04-28T17:57:22.590Z,11.64
2023-04-28T17:59:52.820Z,11.67
2023-04-28T18:02:21.803Z,11.74
2023-04-28T18:05:39.146Z,11.73
2023-04-28T18:08:08.192Z,11.70
2023-04-28T18:10:36.457Z,11.57
2023-04-28T18:13:06.249Z,11.54
2023-04-28T18:15:36.102Z,11.78
2023-04-28T18:18:04.517Z,11.70
2023-04-28T18:20:33.210Z,11.58
2023-04-28T18:23:01.987Z,11.52
2023-04-28T18:25:32.221Z,11.50
2023-04-28T18:28:00.464Z,11.55
2023-04-28T18:30:37.766Z,11.54
2023-04-28T18:33:10.123Z,11.39
2023-04-28T18:35:38.591Z,11.47
2023-04-28T18:38:07.273Z,11.39
2023-04-28T18:40:37.603Z,11.43
2023-04-28T18:43:06.865Z,11.39
2023-04-28T18:45:39.174Z,11.15
2023-04-28T18:48:09.687Z,11.13
2023-04-28T18:50:38.017Z,11.11
2023-04-28T18:53:06.713Z,11.06
2023-04-28T18:55:35.078Z,10.97
2023-04-28T18:58:04.060Z,11.01
2023-04-28T19:00:34.161Z,10.87
2023-04-28T19:03:05.722Z,10.82
2023-04-28T19:05:35.506Z,10.75
2023-04-28T19:08:06.524Z,10.58
2023-04-28T19:10:37.858Z,10.76
2023-04-28T19:13:10.709Z,10.78
2023-04-28T19:15:39.508Z,10.62
2023-04-28T19:18:08.047Z,10.48
2023-04-28T19:20:37.661Z,10.37
2023-04-28T19:23:05.971Z,10.17
2023-04-28T19:25:36.798Z,10.23
2023-04-28T19:28:06.231Z,10.23
2023-04-28T19:30:34.682Z,10.07
2023-04-28T19:33:02.950Z,10.15
2023-04-28T19:35:31.262Z,10.21
2023-04-28T19:38:01.123Z,10.18
2023-04-28T19:40:30.423Z,10.19
2023-04-28T19:43:00.033Z,10.15
2023-04-28T19:45:28.426Z,10.21
2023-04-28T19:47:56.797Z,10.16
2023-04-28T19:50:25.106Z,10.21
2023-04-28T19:52:53.329Z,10.26
2023-04-28T19:55:23.796Z,10.30
2023-04-28T19:57:55.209Z,10.13
2023-04-28T20:00:25.566Z,10.13
2023-04-28T20:02:55.194Z,10.11
2023-04-28T20:05:24.013Z,9.97
2023-04-28T20:08:04.940Z,10.13
2023-04-28T20:10:42.437Z,10.00
2023-04-28T20:13:10.930Z,10.02
2023-04-28T20:15:40.146Z,9.99
2023-04-28T20:18:08.452Z,10.00
2023-04-28T20:20:36.674Z,9.93
2023-04-28T20:23:04.853Z,9.97
2023-04-28T20:25:37.454Z,10.02
2023-04-28T20:28:07.710Z,9.95
2023-04-28T20:30:36.475Z,9.88
2023-04-28T20:33:04.993Z,9.91
2023-04-28T20:35:33.269Z,9.90
2023-04-28T20:38:01.926Z,9.89
2023-04-28T20:40:30.732Z,9.91
2023-04-28T20:43:01.616Z,9.76
2023-04-28T20:45:32.036Z,10.00
2023-04-28T20:48:00.272Z,10.08
2023-04-28T20:50:33.202Z,9.93
2023-04-28T20:53:01.707Z,10.07
2023-04-28T20:55:29.919Z,10.08
2023-04-28T20:57:58.479Z,10.08
2023-04-28T21:00:26.730Z,10.18
2023-04-28T21:02:56.424Z,10.14
2023-04-28T21:05:24.736Z,10.12
2023-04-28T21:07:52.897Z,10.17
2023-04-28T21:10:21.117Z,10.21
2023-04-28T21:12:49.390Z,10.27
2023-04-28T21:15:18.006Z,10.22
2023-04-28T21:17:46.328Z,10.26
2023-04-28T21:20:16.135Z,10.17
2023-04-28T21:22:44.782Z,10.31
2023-04-28T21:25:17.157Z,10.23
2023-04-28T21:27:45.382Z,10.17
2023-04-28T21:30:14.764Z,10.06
2023-04-28T21:32:43.118Z,10.04
2023-04-28T21:35:11.790Z,9.88
2023-04-28T21:37:41.733Z,9.91
2023-04-28T21:40:10.883Z,9.93
2023-04-28T21:42:39.332Z,9.88
2023-04-28T21:45:09.861Z,9.90
2023-04-28T21:47:38.130Z,9.80
2023-04-28T21:50:08.423Z,9.88
2023-04-28T21:52:36.595Z,9.79
2023-04-28T21:55:07.887Z,9.84
2023-04-28T21:57:36.064Z,9.74
2023-04-28T22:00:06.342Z,9.70
2023-04-28T22:02:42.019Z,9.76
2023-04-28T22:05:19.036Z,9.59
2023-04-28T22:07:48.595Z,9.53
2023-04-28T22:10:19.387Z,9.57
2023-04-28T22:12:47.894Z,9.47
2023-04-28T22:15:16.132Z,9.42
2023-04-28T22:17:44.405Z,9.36
2023-04-28T22:20:13.710Z,9.18
2023-04-28T22:22:43.118Z,9.36
2023-04-28T22:25:11.649Z,9.28
2023-04-28T22:27:41.346Z,9.20
2023-04-28T22:30:11.105Z,9.15
2023-04-28T22:32:39.782Z,9.19
2023-04-28T22:35:09.685Z,9.07
2023-04-28T22:37:38.467Z,9.05
2023-04-28T22:40:09.137Z,9.00
2023-04-28T22:42:38.020Z,8.93
2023-04-28T22:45:10.171Z,8.97
2023-04-28T22:47:40.615Z,8.93
2023-04-28T22:50:11.181Z,8.93
2023-04-28T22:52:40.100Z,8.82
2023-04-28T22:55:09.345Z,8.80
2023-04-28T22:57:37.549Z,8.78
2023-04-28T23:00:09.260Z,8.80
2023-04-28T23:02:37.634Z,8.82
2023-04-28T23:05:07.099Z,8.89
2023-04-28T23:07:35.328Z,8.80
2023-04-28T23:10:05.081Z,8.88
2023-04-28T23:12:33.554Z,8.71
2023-04-28T23:15:01.959Z,8.23
2023-04-28T23:17:31.508Z,8.72
2023-04-28T23:19:59.739Z,8.70
2023-04-28T23:22:27.987Z,8.64
2023-04-28T23:24:56.199Z,8.56
2023-04-28T23:27:24.390Z,8.67
2023-04-28T23:29:53.519Z,8.50
2023-04-28T23:32:21.710Z,8.48
2023-04-28T23:34:51.256Z,8.49
2023-04-28T23:37:19.426Z,8.49
2023-04-28T23:39:47.721Z,8.56
2023-04-28T23:42:16.325Z,8.41
2023-04-28T23:44:45.615Z,8.46
2023-04-28T23:47:14.584Z,8.38
2023-04-28T23:49:43.260Z,8.41
2023-04-28T23:52:12.892Z,8.39
2023-04-28T23:54:41.448Z,8.46
2023-04-28T23:57:09.684Z,8.34
2023-04-28T23:59:37.940Z,8.46
